createdAt,value
2023-05-23T00:02:13.777Z,100885.91
2023-05-23T00:05:03.502Z,100893.22
2023-05-23T00:07:50.174Z,100899.25
2023-05-23T00:10:37.589Z,100901.06
2023-05-23T00:13:23.842Z,100903.09
2023-05-23T00:16:10.497Z,100899.00
2023-05-23T00:18:57.535Z,100896.53
2023-05-23T00:21:45.598Z,100893.47
2023-05-23T00:24:31.902Z,100896.44
2023-05-23T00:27:19.245Z,100893.13
2023-05-23T00:30:06.201Z,100895.13
2023-05-23T00:32:54.486Z,100894.44
2023-05-23T00:35:41.452Z,100890.25
2023-05-23T00:38:28.663Z,100896.66
2023-05-23T00:41:14.576Z,100896.38
2023-05-23T00:44:03.477Z,100897.44
2023-05-23T00:46:53.325Z,100898.78
2023-05-23T00:49:39.702Z,100902.59
2023-05-23T00:52:25.780Z,100899.38
2023-05-23T00:55:12.737Z,100901.03
2023-05-23T00:57:59.093Z,100908.22
2023-05-23T01:00:46.734Z,100911.31
2023-05-23T01:03:32.728Z,100916.63
2023-05-23T01:06:19.158Z,100919.47
2023-05-23T01:09:05.477Z,100920.28
2023-05-23T01:11:55.902Z,100919.72
2023-05-23T01:14:45.541Z,100915.66
2023-05-23T01:17:37.014Z,100914.38
2023-05-23T01:20:24.651Z,100908.59
2023-05-23T01:23:42.414Z,100909.06
2023-05-23T01:26:34.983Z,100919.66
2023-05-23T01:29:26.496Z,100913.75
2023-05-23T01:32:13.672Z,100919.41
2023-05-23T01:35:00.779Z,100924.25
2023-05-23T01:37:47.117Z,100922.41
2023-05-23T01:40:33.070Z,100924.72
2023-05-23T01:43:19.061Z,100934.78
2023-05-23T01:46:07.448Z,100935.91
2023-05-23T01:48:54.766Z,100935.72
2023-05-23T01:51:41.060Z,100939.84
2023-05-23T01:54:29.283Z,100940.75
2023-05-23T01:57:16.114Z,100940.03
2023-05-23T02:00:02.284Z,100949.69
2023-05-23T02:03:01.084Z,100944.59
2023-05-23T02:05:47.191Z,100948.66
2023-05-23T02:08:33.098Z,100944.34
2023-05-23T02:11:19.380Z,100940.59
2023-05-23T02:14:05.801Z,100944.16
2023-05-23T02:17:22.053Z,100946.09
2023-05-23T02:24:41.770Z,100952.34
2023-05-23T02:27:28.604Z,100952.78
2023-05-23T02:30:15.322Z,100951.97
2023-05-23T02:33:05.919Z,100949.63
2023-05-23T02:35:52.310Z,100955.94
2023-05-23T02:38:38.665Z,100949.03
2023-05-23T02:41:27.194Z,100955.13
2023-05-23T02:44:13.400Z,100953.41
2023-05-23T02:46:59.947Z,100952.66
2023-05-23T02:49:45.985Z,100961.00
2023-05-23T02:52:33.302Z,100965.41
2023-05-23T02:55:19.990Z,100967.75
2023-05-23T02:58:09.764Z,100960.16
2023-05-23T03:00:55.730Z,100963.75
2023-05-23T03:03:42.106Z,100954.47
2023-05-23T03:06:28.839Z,100953.03
2023-05-23T03:09:16.983Z,100958.75
2023-05-23T03:12:03.392Z,100958.53
2023-05-23T03:14:51.452Z,100955.50
2023-05-23T03:17:38.278Z,100959.78
2023-05-23T03:20:24.709Z,100955.50
2023-05-23T03:23:11.129Z,100953.44
2023-05-23T03:25:57.462Z,100947.50
2023-05-23T03:28:43.854Z,100946.53
2023-05-23T03:31:32.141Z,100948.84
2023-05-23T03:34:19.011Z,100944.91
2023-05-23T03:37:05.784Z,100943.06
2023-05-23T03:39:52.274Z,100940.59
2023-05-23T03:42:40.075Z,100939.53
2023-05-23T03:45:28.619Z,100940.16
2023-05-23T03:48:16.338Z,100936.38
2023-05-23T03:51:03.137Z,100934.81
2023-05-23T03:53:50.621Z,100926.13
2023-05-23T03:56:37.346Z,100931.78
2023-05-23T03:59:24.316Z,100935.06
2023-05-23T04:02:11.593Z,100943.00
2023-05-23T04:04:59.415Z,100947.91
2023-05-23T04:07:45.884Z,100949.84
2023-05-23T04:10:32.348Z,100954.28
2023-05-23T04:13:19.205Z,100954.28
2023-05-23T04:16:06.516Z,100958.34
2023-05-23T04:18:53.056Z,100959.53
2023-05-23T04:21:40.452Z,100951.44
2023-05-23T04:24:32.734Z,100952.81
2023-05-23T04:27:19.833Z,100958.38
2023-05-23T04:30:09.179Z,100957.53
2023-05-23T04:32:59.965Z,100954.34
2023-05-23T04:35:49.323Z,100955.66
2023-05-23T04:38:38.415Z,100957.66
2023-05-23T04:41:24.995Z,100951.13
2023-05-23T04:44:24.369Z,100963.44
2023-05-23T04:47:24.634Z,100956.28
2023-05-23T04:50:16.625Z,100951.88
2023-05-23T04:53:04.384Z,100955.66
2023-05-23T04:55:52.364Z,100956.34
2023-05-23T04:58:40.567Z,100948.75
2023-05-23T05:01:28.215Z,100950.09
2023-05-23T05:04:14.651Z,100945.25
2023-05-23T05:07:03.513Z,100947.19
2023-05-23T05:09:49.715Z,100960.78
2023-05-23T05:12:37.968Z,100953.25
2023-05-23T05:15:25.001Z,100957.69
2023-05-23T05:18:14.965Z,100959.91
2023-05-23T05:21:01.506Z,100965.22
2023-05-23T05:23:48.811Z,100959.13
2023-05-23T05:26:37.475Z,100962.44
2023-05-23T05:29:25.705Z,100957.94
2023-05-23T05:32:12.011Z,100949.25
2023-05-23T05:34:59.140Z,100948.59
2023-05-23T05:37:47.015Z,100954.03
2023-05-23T05:40:33.650Z,100953.84
2023-05-23T05:43:21.135Z,100957.81
2023-05-23T05:46:09.005Z,100965.66
2023-05-23T05:48:55.305Z,100965.69
2023-05-23T05:51:41.812Z,100964.69
2023-05-23T05:54:27.798Z,100966.97
2023-05-23T05:57:14.419Z,100967.56
2023-05-23T06:00:01.073Z,100970.28
2023-05-23T06:02:51.598Z,100969.91
2023-05-23T06:05:48.485Z,100972.09
2023-05-23T06:08:34.756Z,100975.94
2023-05-23T06:11:21.148Z,100971.13
2023-05-23T06:14:09.527Z,100976.16
2023-05-23T06:16:58.112Z,100978.06
2023-05-23T06:19:45.861Z,100977.34
2023-05-23T06:22:32.058Z,100983.19
2023-05-23T06:25:18.264Z,100979.53
2023-05-23T06:28:06.750Z,100982.84
2023-05-23T06:30:53.033Z,100987.91
2023-05-23T06:33:39.418Z,100985.13
2023-05-23T06:36:26.668Z,100983.66
2023-05-23T06:39:14.513Z,100999.03
2023-05-23T06:42:01.128Z,100998.66
2023-05-23T06:44:53.346Z,101002.97
2023-05-23T06:47:39.246Z,101006.50
2023-05-23T06:50:25.767Z,101004.44
2023-05-23T06:53:18.841Z,101012.66
2023-05-23T06:56:06.823Z,101023.72
2023-05-23T06:58:59.710Z,101017.44
2023-05-23T07:01:46.856Z,101020.38
2023-05-23T07:04:33.854Z,101027.22
2023-05-23T07:07:24.570Z,101021.22
2023-05-23T07:10:13.023Z,101030.78
2023-05-23T07:12:59.931Z,101039.75
2023-05-23T07:15:47.814Z,101047.25
2023-05-23T07:18:36.801Z,101042.66
2023-05-23T07:21:24.674Z,101040.19
2023-05-23T07:24:11.224Z,101046.63
2023-05-23T07:26:59.264Z,101044.56
2023-05-23T07:29:46.253Z,101044.66
2023-05-23T07:32:32.952Z,101046.53
2023-05-23T07:35:24.040Z,101048.63
2023-05-23T07:38:10.097Z,101060.50
2023-05-23T07:41:10.100Z,101056.06
2023-05-23T07:43:59.483Z,101063.38
2023-05-23T07:46:45.687Z,101058.78
2023-05-23T07:49:31.897Z,101066.94
2023-05-23T07:52:18.115Z,101081.19
2023-05-23T07:55:04.822Z,101086.31
2023-05-23T07:57:54.970Z,101079.88
2023-05-23T08:00:44.251Z,101087.28
2023-05-23T08:03:43.008Z,101091.41
2023-05-23T08:06:34.828Z,101096.59
2023-05-23T08:09:25.605Z,101102.78
2023-05-23T08:12:15.550Z,101101.13
2023-05-23T08:15:03.817Z,101110.78
2023-05-23T08:17:58.023Z,101104.16
2023-05-23T08:20:44.380Z,101119.06
2023-05-23T08:23:30.466Z,101123.22
2023-05-23T08:26:17.101Z,101123.78
2023-05-23T08:29:04.647Z,101123.75
2023-05-23T08:31:51.854Z,101120.81
2023-05-23T08:34:39.801Z,101135.47
2023-05-23T08:37:26.232Z,101133.72
2023-05-23T08:40:15.458Z,101141.09
2023-05-23T08:43:07.940Z,101147.31
2023-05-23T08:45:54.963Z,101147.97
2023-05-23T08:48:43.406Z,101152.94
2023-05-23T08:51:31.872Z,101158.78
2023-05-23T08:54:22.279Z,101161.91
2023-05-23T08:57:08.850Z,101178.13
2023-05-23T09:00:02.356Z,101183.72
2023-05-23T09:02:49.539Z,101186.22
2023-05-23T09:05:52.477Z,101184.34
2023-05-23T09:08:40.801Z,101193.50
2023-05-23T09:11:27.560Z,101202.84
2023-05-23T09:14:17.975Z,101201.84
2023-05-23T09:17:05.328Z,101202.44
2023-05-23T09:19:52.770Z,101214.25
2023-05-23T09:22:56.749Z,101232.31
2023-05-23T09:25:48.728Z,101223.84
2023-05-23T09:28:36.632Z,101225.91
2023-05-23T09:31:27.386Z,101233.59
2023-05-23T09:34:14.913Z,101241.91
2023-05-23T09:37:01.367Z,101244.34
2023-05-23T09:39:49.888Z,101248.13
2023-05-23T09:42:42.759Z,101255.41
2023-05-23T09:45:31.238Z,101260.19
2023-05-23T09:48:17.511Z,101253.38
2023-05-23T09:51:05.994Z,101268.22
2023-05-23T09:53:52.142Z,101259.25
2023-05-23T09:56:43.522Z,101273.47
2023-05-23T09:59:32.772Z,101272.53
2023-05-23T10:02:31.805Z,101276.34
2023-05-23T10:05:29.246Z,101287.25
2023-05-23T10:08:26.667Z,101286.75
2023-05-23T10:11:49.811Z,101289.97
2023-05-23T10:14:39.948Z,101294.34
2023-05-23T10:17:32.004Z,101303.84
2023-05-23T10:20:19.214Z,101304.00
2023-05-23T10:23:06.215Z,101298.91
2023-05-23T10:25:52.554Z,101307.28
2023-05-23T10:28:38.838Z,101306.03
2023-05-23T10:31:26.256Z,101318.94
2023-05-23T10:34:17.052Z,101327.25
2023-05-23T10:37:05.198Z,101327.97
2023-05-23T10:39:58.510Z,101342.16
2023-05-23T10:42:51.035Z,101344.25
2023-05-23T10:45:43.619Z,101342.06
2023-05-23T10:48:36.184Z,101350.56
2023-05-23T10:51:23.148Z,101349.97
2023-05-23T10:54:12.717Z,101347.00
2023-05-23T10:57:05.495Z,101354.91
2023-05-23T10:59:52.205Z,101354.91
2023-05-23T11:02:38.412Z,101356.03
2023-05-23T11:05:28.265Z,101357.41
2023-05-23T11:08:16.187Z,101359.06
2023-05-23T11:11:03.376Z,101355.06
2023-05-23T11:13:57.317Z,101365.44
2023-05-23T11:16:46.422Z,101365.06
2023-05-23T11:19:32.843Z,101378.00
2023-05-23T11:22:21.451Z,101375.06
2023-05-23T11:25:08.808Z,101377.81
2023-05-23T11:27:55.088Z,101375.09
2023-05-23T11:30:42.200Z,101387.94
2023-05-23T11:33:31.328Z,101383.47
2023-05-23T11:36:17.401Z,101382.97
2023-05-23T11:39:05.241Z,101400.09
2023-05-23T11:42:00.227Z,101396.59
2023-05-23T11:44:50.034Z,101397.94
2023-05-23T11:47:41.861Z,101400.81
2023-05-23T11:50:28.302Z,101402.28
2023-05-23T11:53:17.378Z,101399.31
2023-05-23T11:56:05.529Z,101403.75
2023-05-23T11:58:51.704Z,101401.91
2023-05-23T12:01:38.147Z,101407.94
2023-05-23T12:04:26.907Z,101401.66
2023-05-23T12:07:13.114Z,101418.34
2023-05-23T12:09:59.260Z,101416.03
2023-05-23T12:12:47.365Z,101430.41
2023-05-23T12:15:33.578Z,101412.94
2023-05-23T12:18:20.557Z,101416.63
2023-05-23T12:21:08.522Z,101424.31
2023-05-23T12:23:55.285Z,101413.50
2023-05-23T12:26:47.796Z,101418.88
2023-05-23T12:29:37.656Z,101414.84
2023-05-23T12:32:25.978Z,101413.56
2023-05-23T12:35:14.174Z,101412.31
2023-05-23T12:38:00.698Z,101416.69
2023-05-23T12:40:46.857Z,101409.00
2023-05-23T12:43:32.888Z,101414.94
2023-05-23T12:46:20.483Z,101425.97
2023-05-23T12:49:06.674Z,101425.34
2023-05-23T12:51:53.455Z,101431.38
2023-05-23T12:54:39.777Z,101433.13
2023-05-23T12:57:26.091Z,101423.31
2023-05-23T13:00:13.323Z,101424.38
2023-05-23T13:03:01.334Z,101419.81
2023-05-23T13:05:47.916Z,101422.31
2023-05-23T13:08:34.342Z,101404.25
2023-05-23T13:11:20.534Z,101415.19
2023-05-23T13:14:06.999Z,101422.38
2023-05-23T13:16:53.184Z,101427.28
2023-05-23T13:19:40.925Z,101420.34
2023-05-23T13:22:26.906Z,101430.63
2023-05-23T13:25:13.524Z,101427.97
2023-05-23T13:28:01.324Z,101442.47
2023-05-23T13:30:47.750Z,101441.03
2023-05-23T13:33:34.536Z,101447.78
2023-05-23T13:36:22.142Z,101456.19
2023-05-23T13:39:08.358Z,101449.84
2023-05-23T13:41:54.619Z,101467.03
2023-05-23T13:44:40.602Z,101456.78
2023-05-23T13:47:27.044Z,101452.28
2023-05-23T13:50:13.346Z,101460.47
2023-05-23T13:53:00.886Z,101462.09
2023-05-23T13:55:46.798Z,101466.19
2023-05-23T13:58:33.120Z,101468.13
2023-05-23T14:01:19.621Z,101472.78
2023-05-23T14:04:07.245Z,101470.72
2023-05-23T14:06:54.388Z,101465.94
2023-05-23T14:09:41.965Z,101478.97
2023-05-23T14:12:27.860Z,101478.22
2023-05-23T14:15:13.891Z,101474.38
2023-05-23T14:18:00.328Z,101477.00
2023-05-23T14:20:46.774Z,101477.94
2023-05-23T14:23:32.698Z,101485.38
2023-05-23T14:26:19.974Z,101484.44
2023-05-23T14:29:06.253Z,101488.88
2023-05-23T14:31:52.750Z,101497.69
2023-05-23T14:34:39.072Z,101487.22
2023-05-23T14:37:25.096Z,101500.56
2023-05-23T14:40:12.624Z,101489.84
2023-05-23T14:43:00.225Z,101497.44
2023-05-23T14:45:46.722Z,101498.97
2023-05-23T14:48:33.258Z,101495.56
2023-05-23T14:51:31.085Z,101503.19
2023-05-23T14:54:26.212Z,101503.50
2023-05-23T14:57:12.619Z,101512.66
2023-05-23T14:59:59.885Z,101514.50
2023-05-23T15:02:46.530Z,101515.25
2023-05-23T15:05:33.003Z,101513.84
2023-05-23T15:08:19.347Z,101515.03
2023-05-23T15:11:05.385Z,101511.28
2023-05-23T15:13:51.608Z,101511.25
2023-05-23T15:16:39.550Z,101514.44
2023-05-23T15:19:25.664Z,101512.03
2023-05-23T15:22:29.842Z,101510.19
2023-05-23T15:25:24.394Z,101513.88
2023-05-23T15:28:16.742Z,101511.16
2023-05-23T15:31:02.976Z,101508.53
2023-05-23T15:33:50.705Z,101521.22
2023-05-23T15:36:36.879Z,101509.72
2023-05-23T15:39:23.210Z,101518.38
2023-05-23T15:42:09.152Z,101516.53
2023-05-23T15:44:55.357Z,101517.97
2023-05-23T15:47:41.660Z,101525.41
2023-05-23T15:50:29.635Z,101522.53
2023-05-23T15:53:16.028Z,101516.59
2023-05-23T15:56:01.971Z,101518.59
2023-05-23T15:58:48.092Z,101522.72
2023-05-23T16:01:34.583Z,101516.28
2023-05-23T16:04:21.032Z,101519.25
2023-05-23T16:07:08.922Z,101512.16
2023-05-23T16:09:55.135Z,101518.63
2023-05-23T16:12:41.312Z,101532.97
2023-05-23T16:15:27.251Z,101529.75
2023-05-23T16:18:13.193Z,101527.34
2023-05-23T16:20:59.646Z,101531.47
2023-05-23T16:23:47.105Z,101531.19
2023-05-23T16:26:32.989Z,101536.13
2023-05-23T16:29:19.117Z,101542.03
2023-05-23T16:32:06.206Z,101537.06
2023-05-23T16:34:54.451Z,101534.00
2023-05-23T16:37:41.066Z,101537.78
2023-05-23T16:40:28.851Z,101538.22
2023-05-23T16:43:14.816Z,101531.13
2023-05-23T16:46:01.284Z,101538.44
2023-05-23T16:48:47.664Z,101538.25
2023-05-23T16:51:34.242Z,101532.19
2023-05-23T16:54:20.256Z,101529.69
2023-05-23T16:57:08.011Z,101539.53
2023-05-23T16:59:54.498Z,101537.00
2023-05-23T17:02:40.734Z,101534.09
2023-05-23T17:05:27.266Z,101532.44
2023-05-23T17:08:13.500Z,101534.09
2023-05-23T17:10:59.988Z,101530.97
2023-05-23T17:13:47.680Z,101531.56
2023-05-23T17:16:34.328Z,101531.63
2023-05-23T17:19:21.358Z,101538.69
2023-05-23T17:22:08.031Z,101536.13
2023-05-23T17:24:54.159Z,101538.41
2023-05-23T17:27:40.574Z,101534.47
2023-05-23T17:30:28.288Z,101537.69
2023-05-23T17:33:14.371Z,101540.66
2023-05-23T17:36:00.264Z,101549.31
2023-05-23T17:38:46.635Z,101548.44
2023-05-23T17:41:32.695Z,101548.03
2023-05-23T17:44:19.538Z,101551.31
2023-05-23T17:47:07.745Z,101552.06
2023-05-23T17:49:54.039Z,101556.63
2023-05-23T17:52:40.478Z,101553.13
2023-05-23T17:55:26.509Z,101555.91
2023-05-23T17:58:12.574Z,101566.94
2023-05-23T18:00:59.005Z,101566.50
2023-05-23T18:03:48.785Z,101565.44
2023-05-23T18:06:35.310Z,101567.59
2023-05-23T18:09:21.483Z,101566.31
2023-05-23T18:12:07.927Z,101561.59
2023-05-23T18:14:54.108Z,101567.50
2023-05-23T18:17:40.694Z,101571.03
2023-05-23T18:20:28.604Z,101584.34
2023-05-23T18:23:14.586Z,101593.72
2023-05-23T18:26:00.523Z,101585.56
2023-05-23T18:28:46.604Z,101582.09
2023-05-23T18:31:32.656Z,101585.94
2023-05-23T18:34:19.112Z,101596.91
2023-05-23T18:37:06.532Z,101588.91
2023-05-23T18:39:52.811Z,101596.22
2023-05-23T18:42:39.107Z,101601.41
2023-05-23T18:45:25.763Z,101614.59
2023-05-23T18:48:12.187Z,101620.16
2023-05-23T18:50:58.612Z,101621.03
2023-05-23T18:53:46.499Z,101622.91
2023-05-23T18:56:32.769Z,101629.31
2023-05-23T18:59:19.096Z,101626.97
2023-05-23T19:02:06.935Z,101629.22
2023-05-23T19:04:53.330Z,101637.84
2023-05-23T19:07:39.783Z,101635.44
2023-05-23T19:10:27.413Z,101650.50
2023-05-23T19:13:13.991Z,101644.78
2023-05-23T19:16:00.389Z,101654.66
2023-05-23T19:18:48.259Z,101665.59
2023-05-23T19:21:34.726Z,101663.44
2023-05-23T19:24:21.267Z,101670.19
2023-05-23T19:27:08.977Z,101670.44
2023-05-23T19:29:55.132Z,101667.69
2023-05-23T19:32:41.386Z,101677.22
2023-05-23T19:35:27.687Z,101675.50
2023-05-23T19:38:14.031Z,101677.63
2023-05-23T19:41:00.021Z,101674.66
2023-05-23T19:43:47.650Z,101677.06
2023-05-23T19:46:34.091Z,101682.47
2023-05-23T19:49:20.939Z,101685.50
2023-05-23T19:52:07.142Z,101687.22
2023-05-23T19:54:52.974Z,101684.06
2023-05-23T19:57:39.384Z,101697.22
2023-05-23T20:00:26.749Z,101694.38
2023-05-23T20:03:12.755Z,101698.09
2023-05-23T20:05:59.846Z,101703.53
2023-05-23T20:08:46.270Z,101696.84
2023-05-23T20:11:32.196Z,101700.63
2023-05-23T20:14:18.763Z,101704.66
2023-05-23T20:17:07.903Z,101706.41
2023-05-23T20:19:53.730Z,101710.75
2023-05-23T20:22:39.705Z,101712.13
2023-05-23T20:25:28.317Z,101714.88
2023-05-23T20:28:14.244Z,101713.34
2023-05-23T20:31:00.240Z,101715.53
2023-05-23T20:33:47.728Z,101709.81
2023-05-23T20:36:33.979Z,101716.59
2023-05-23T20:39:22.087Z,101726.03
2023-05-23T20:42:10.360Z,101728.38
2023-05-23T20:44:56.867Z,101730.03
2023-05-23T20:47:43.620Z,101728.06
2023-05-23T20:50:33.693Z,101733.75
2023-05-23T20:53:20.172Z,101731.75
2023-05-23T20:56:10.116Z,101733.09
2023-05-23T20:58:57.278Z,101735.13
2023-05-23T21:01:43.670Z,101735.59
2023-05-23T21:04:29.891Z,101734.78
2023-05-23T21:07:17.073Z,101732.59
2023-05-23T21:10:03.427Z,101734.78
2023-05-23T21:12:50.823Z,101736.66
2023-05-23T21:15:36.935Z,101734.44
2023-05-23T21:18:23.382Z,101733.13
2023-05-23T21:21:09.415Z,101736.31
2023-05-23T21:23:56.974Z,101735.47
2023-05-23T21:26:43.499Z,101737.97
2023-05-23T21:29:29.495Z,101736.47
2023-05-23T21:32:15.410Z,101737.81
2023-05-23T21:35:01.421Z,101745.38
2023-05-23T21:37:47.317Z,101743.69
2023-05-23T21:40:34.894Z,101747.22
2023-05-23T21:43:21.117Z,101747.22
2023-05-23T21:46:07.169Z,101741.19
2023-05-23T21:48:53.542Z,101744.38
2023-05-23T21:51:40.087Z,101750.25
2023-05-23T21:54:26.349Z,101747.53
2023-05-23T21:57:14.169Z,101747.38
2023-05-23T22:00:00.428Z,101756.25
2023-05-23T22:02:47.816Z,101742.50
2023-05-23T22:05:34.001Z,101746.69
2023-05-23T22:08:20.622Z,101746.16
2023-05-23T22:11:09.381Z,101746.03
2023-05-23T22:13:56.850Z,101741.63
2023-05-23T22:16:42.962Z,101745.97
2023-05-23T22:19:30.305Z,101736.06
2023-05-23T22:22:16.601Z,101731.03
2023-05-23T22:25:02.496Z,101733.38
2023-05-23T22:27:48.541Z,101724.84
2023-05-23T22:30:36.406Z,101730.19
2023-05-23T22:33:22.774Z,101728.00
2023-05-23T22:36:10.298Z,101722.94
2023-05-23T22:38:57.051Z,101725.56
2023-05-23T22:41:43.257Z,101727.25
2023-05-23T22:44:29.295Z,101724.34
2023-05-23T22:47:16.653Z,101724.16
2023-05-23T22:50:03.858Z,101717.28
2023-05-23T22:52:50.660Z,101730.03
2023-05-23T22:55:36.825Z,101724.47
2023-05-23T22:58:23.149Z,101727.31
2023-05-23T23:01:09.560Z,101730.00
2023-05-23T23:03:57.327Z,101728.16
2023-05-23T23:06:44.396Z,101727.63
2023-05-23T23:09:30.885Z,101731.31
2023-05-23T23:12:17.028Z,101731.44
2023-05-23T23:15:03.069Z,101735.81
2023-05-23T23:17:49.201Z,101740.13
2023-05-23T23:20:38.787Z,101742.03
2023-05-23T23:23:25.086Z,101742.69
2023-05-23T23:26:11.517Z,101751.63
2023-05-23T23:28:57.761Z,101741.09
2023-05-23T23:31:43.840Z,101748.28
2023-05-23T23:34:30.507Z,101737.56
2023-05-23T23:37:18.141Z,101753.03
2023-05-23T23:40:04.896Z,101749.78
2023-05-23T23:42:51.237Z,101749.41
2023-05-23T23:45:37.164Z,101755.06
2023-05-23T23:48:23.128Z,101752.56
2023-05-23T23:51:09.495Z,101757.31
2023-05-23T23:53:56.726Z,101751.78
2023-05-23T23:56:43.075Z,101742.38
2023-05-23T23:59:29.189Z,101748.19
